createdAt,value
2018-09-25T00:03:26.116Z,8.32
2018-09-25T00:08:34.692Z,8.34
2018-09-25T00:13:43.294Z,8.32
2018-09-25T00:18:51.813Z,8.30
2018-09-25T00:24:00.503Z,8.29
2018-09-25T00:29:09.104Z,8.27
2018-09-25T00:34:17.618Z,8.26
2018-09-25T00:39:26.179Z,8.18
2018-09-25T00:44:34.979Z,8.08
2018-09-25T00:49:43.553Z,8.10
2018-09-25T00:54:52.051Z,7.95
2018-09-25T01:00:00.872Z,7.86
2018-09-25T01:05:09.366Z,7.81
2018-09-25T01:10:17.896Z,7.96
2018-09-25T01:15:26.475Z,8.08
2018-09-25T01:20:35.167Z,8.06
2018-09-25T01:25:43.789Z,8.08
2018-09-25T01:30:52.327Z,8.07
2018-09-25T01:36:00.854Z,7.94
2018-09-25T01:41:09.511Z,7.70
2018-09-25T01:46:18.158Z,7.53
2018-09-25T01:51:26.743Z,7.44
2018-09-25T01:56:35.486Z,7.46
2018-09-25T02:01:44.157Z,7.47
2018-09-25T02:06:52.999Z,7.59
2018-09-25T02:12:01.591Z,7.69
2018-09-25T02:17:10.323Z,7.74
2018-09-25T02:22:19.121Z,7.71
2018-09-25T02:27:27.843Z,7.59
2018-09-25T02:32:36.600Z,7.57
2018-09-25T02:37:45.283Z,7.61
2018-09-25T02:42:54.042Z,7.59
2018-09-25T02:48:02.795Z,7.35
2018-09-25T02:53:11.404Z,7.16
2018-09-25T02:58:20.133Z,7.09
2018-09-25T03:03:28.777Z,7.07
2018-09-25T03:08:37.440Z,7.12
2018-09-25T03:13:45.959Z,7.11
2018-09-25T03:18:54.538Z,7.08
2018-09-25T03:24:03.282Z,7.07
2018-09-25T03:29:11.886Z,7.00
2018-09-25T03:34:20.615Z,7.07
2018-09-25T03:39:29.226Z,7.20
2018-09-25T03:44:37.889Z,7.12
2018-09-25T03:49:46.473Z,7.01
2018-09-25T03:54:55.081Z,6.90
2018-09-25T04:00:03.733Z,6.86
2018-09-25T04:05:12.415Z,6.85
2018-09-25T04:10:21.023Z,6.81
2018-09-25T04:15:29.622Z,6.83
2018-09-25T04:20:38.448Z,6.86
2018-09-25T04:25:47.177Z,6.88
2018-09-25T04:30:55.879Z,6.90
2018-09-25T04:36:04.582Z,6.92
2018-09-25T04:41:13.407Z,6.99
2018-09-25T04:46:22.172Z,7.04
2018-09-25T04:51:30.747Z,7.04
2018-09-25T04:56:39.459Z,6.95
2018-09-25T05:01:48.219Z,7.01
2018-09-25T05:06:56.835Z,7.09
2018-09-25T05:12:05.529Z,7.01
2018-09-25T05:17:14.134Z,6.93
2018-09-25T05:22:22.697Z,6.85
2018-09-25T05:27:31.408Z,6.84
2018-09-25T05:32:46.983Z,6.86
2018-09-25T05:37:55.554Z,6.95
2018-09-25T05:43:04.204Z,7.01
2018-09-25T05:48:12.949Z,7.06
2018-09-25T05:53:21.672Z,7.17
2018-09-25T05:58:30.200Z,7.34
2018-09-25T06:03:38.938Z,7.42
2018-09-25T06:08:47.563Z,7.52
2018-09-25T06:13:56.323Z,7.61
2018-09-25T06:19:04.831Z,7.70
2018-09-25T06:24:13.460Z,7.83
2018-09-25T06:29:22.018Z,7.92
2018-09-25T06:34:30.717Z,7.99
2018-09-25T06:39:39.411Z,8.06
2018-09-25T06:44:48.224Z,8.15
2018-09-25T06:49:56.835Z,8.23
2018-09-25T06:55:05.552Z,8.30
2018-09-25T07:00:14.127Z,8.38
2018-09-25T07:05:22.691Z,8.48
2018-09-25T07:10:31.429Z,8.53
2018-09-25T07:15:40.061Z,8.63
2018-09-25T07:20:48.844Z,8.73
2018-09-25T07:25:57.763Z,8.82
2018-09-25T07:31:06.620Z,8.98
2018-09-25T07:36:15.425Z,9.09
2018-09-25T07:41:24.139Z,9.22
2018-09-25T07:46:32.899Z,9.35
2018-09-25T07:51:41.616Z,9.45
2018-09-25T07:56:50.393Z,9.53
2018-09-25T08:01:59.154Z,9.58
2018-09-25T08:07:07.938Z,9.65
2018-09-25T08:12:16.455Z,9.75
2018-09-25T08:17:25.082Z,9.80
2018-09-25T08:22:33.691Z,9.87
2018-09-25T08:27:42.386Z,9.92
2018-09-25T08:32:51.203Z,10.02
2018-09-25T08:37:59.835Z,10.10
2018-09-25T08:43:08.449Z,10.28
2018-09-25T08:48:17.134Z,10.37
2018-09-25T08:53:25.845Z,10.36
2018-09-25T08:58:34.396Z,10.57
2018-09-25T09:03:43.090Z,10.88
2018-09-25T09:08:51.883Z,11.06
2018-09-25T09:14:00.491Z,11.17
2018-09-25T09:19:09.099Z,11.46
2018-09-25T09:24:17.807Z,11.62
2018-09-25T09:29:26.466Z,11.49
2018-09-25T09:34:35.149Z,11.60
2018-09-25T09:39:43.798Z,11.48
2018-09-25T09:44:52.515Z,11.41
2018-09-25T09:50:01.270Z,12.08
2018-09-25T09:55:10.022Z,11.80
2018-09-25T10:00:18.461Z,12.13
2018-09-25T10:11:05.481Z,12.44
2018-09-25T10:16:14.218Z,12.59
2018-09-25T10:21:22.814Z,12.75
2018-09-25T10:26:31.681Z,12.33
2018-09-25T10:31:40.447Z,12.84
2018-09-25T10:36:49.187Z,13.19
2018-09-25T10:41:57.711Z,13.50
2018-09-25T10:47:06.291Z,13.23
2018-09-25T10:52:15.154Z,13.82
2018-09-25T10:57:23.831Z,13.86
2018-09-25T11:02:32.633Z,13.47
2018-09-25T11:07:41.283Z,13.22
2018-09-25T11:12:50.023Z,13.29
2018-09-25T11:23:36.150Z,27.35
2018-09-25T11:28:44.883Z,29.33
2018-09-25T11:33:53.526Z,30.10
2018-09-25T11:39:02.250Z,31.42
2018-09-25T12:34:52.995Z,26.17
2018-09-25T12:40:01.766Z,30.33
2018-09-25T12:45:11.058Z,33.68
2018-09-25T12:50:19.748Z,24.54
2018-09-25T12:55:28.356Z,22.82
2018-09-25T13:00:37.096Z,30.63
2018-09-25T13:05:45.646Z,32.64
2018-09-25T13:10:54.204Z,28.29
2018-09-25T13:21:33.313Z,29.05
2018-09-25T13:26:41.879Z,32.40
2018-09-25T13:32:02.977Z,32.30
2018-09-25T13:37:11.639Z,25.65
2018-09-25T13:42:20.386Z,20.98
2018-09-25T13:47:29.114Z,19.72
2018-09-25T13:52:37.776Z,17.64
2018-09-25T13:57:46.388Z,20.08
2018-09-25T14:02:55.155Z,21.01
2018-09-25T14:08:03.716Z,19.45
2018-09-25T14:13:12.506Z,18.57
2018-09-25T14:18:21.219Z,17.80
2018-09-25T14:23:29.849Z,17.01
2018-09-25T14:28:38.637Z,16.32
2018-09-25T14:33:47.239Z,15.75
2018-09-25T14:38:56.007Z,15.45
2018-09-25T14:44:04.638Z,15.29
2018-09-25T14:49:13.434Z,15.36
2018-09-25T14:54:22.155Z,15.22
2018-09-25T14:59:30.808Z,14.87
2018-09-25T15:10:16.996Z,14.68
2018-09-25T15:15:25.710Z,14.99
2018-09-25T15:20:34.411Z,15.13
2018-09-25T15:25:43.115Z,14.87
2018-09-25T15:30:51.880Z,14.72
2018-09-25T15:36:00.617Z,14.71
2018-09-25T15:41:09.279Z,14.89
2018-09-25T15:46:17.923Z,14.94
2018-09-25T15:51:26.569Z,14.98
2018-09-25T15:56:35.208Z,14.93
2018-09-25T16:01:43.903Z,14.89
2018-09-25T16:06:52.577Z,14.89
2018-09-25T16:12:01.173Z,14.89
2018-09-25T16:17:09.776Z,14.87
2018-09-25T16:22:18.369Z,14.87
2018-09-25T16:27:27.123Z,14.84
2018-09-25T16:32:35.790Z,14.84
2018-09-25T16:37:44.564Z,14.76
2018-09-25T16:42:53.089Z,14.64
2018-09-25T16:48:01.920Z,14.48
2018-09-25T16:53:10.824Z,14.17
2018-09-25T16:58:19.615Z,13.83
2018-09-25T17:03:29.119Z,13.55
2018-09-25T17:08:38.349Z,13.28
2018-09-25T17:13:47.175Z,13.09
2018-09-25T17:18:56.040Z,12.91
2018-09-25T17:24:04.622Z,12.73
2018-09-25T17:29:13.472Z,12.51
2018-09-25T17:34:22.348Z,12.30
2018-09-25T17:39:31.596Z,12.15
2018-09-25T17:44:40.184Z,12.00
2018-09-25T17:49:48.945Z,11.87
2018-09-25T17:54:57.735Z,11.77
2018-09-25T18:00:06.575Z,11.61
2018-09-25T18:05:15.270Z,11.48
2018-09-25T18:10:23.727Z,11.33
2018-09-25T18:15:32.424Z,11.20
2018-09-25T18:20:41.261Z,11.14
2018-09-25T18:25:49.997Z,11.01
2018-09-25T18:30:58.457Z,10.90
2018-09-25T18:36:07.141Z,10.82
2018-09-25T18:41:15.816Z,10.79
2018-09-25T18:46:24.435Z,10.74
2018-09-25T18:51:33.001Z,10.70
2018-09-25T18:56:41.661Z,10.66
2018-09-25T19:01:50.210Z,10.60
2018-09-25T19:06:58.929Z,10.50
2018-09-25T19:12:07.687Z,10.43
2018-09-25T19:17:16.443Z,10.35
2018-09-25T19:22:25.173Z,10.33
2018-09-25T19:27:33.857Z,10.31
2018-09-25T19:32:42.593Z,10.15
2018-09-25T19:37:51.178Z,10.08
2018-09-25T19:43:00.027Z,9.98
2018-09-25T19:48:08.863Z,9.97
2018-09-25T19:53:17.627Z,9.88
2018-09-25T19:58:26.396Z,9.81
2018-09-25T20:03:34.942Z,9.69
2018-09-25T20:08:43.693Z,9.63
2018-09-25T20:13:52.230Z,9.63
2018-09-25T20:19:00.934Z,9.62
2018-09-25T20:24:09.544Z,9.56
2018-09-25T20:29:18.220Z,9.41
2018-09-25T20:34:26.950Z,9.34
2018-09-25T20:39:35.588Z,9.25
2018-09-25T20:44:44.351Z,9.25
2018-09-25T20:49:52.976Z,9.21
2018-09-25T20:55:01.647Z,9.18
2018-09-25T21:00:10.397Z,9.08
2018-09-25T21:05:19.133Z,8.95
2018-09-25T21:10:27.908Z,8.89
2018-09-25T21:15:36.689Z,8.86
2018-09-25T21:20:45.408Z,8.93
2018-09-25T21:25:54.164Z,8.91
2018-09-25T21:31:02.714Z,8.87
2018-09-25T21:36:11.304Z,8.80
2018-09-25T21:41:19.813Z,8.79
2018-09-25T21:46:28.488Z,8.76
2018-09-25T21:51:37.326Z,8.70
2018-09-25T21:56:45.928Z,8.62
2018-09-25T22:01:54.523Z,8.53
2018-09-25T22:07:03.273Z,8.53
2018-09-25T22:12:12.063Z,8.49
2018-09-25T22:17:20.863Z,8.41
2018-09-25T22:22:29.453Z,8.39
2018-09-25T22:27:38.242Z,8.46
2018-09-25T22:32:47.078Z,8.40
2018-09-25T22:37:55.807Z,8.36
2018-09-25T22:43:04.606Z,8.26
2018-09-25T22:48:13.307Z,8.34
2018-09-25T22:53:22.091Z,8.42
2018-09-25T22:58:30.698Z,8.46
2018-09-25T23:03:39.290Z,8.53
2018-09-25T23:08:47.822Z,8.61
2018-09-25T23:13:56.248Z,8.52
2018-09-25T23:19:04.918Z,8.45
2018-09-25T23:24:13.488Z,8.46
2018-09-25T23:29:22.190Z,8.47
2018-09-25T23:34:30.948Z,8.45
2018-09-25T23:39:39.523Z,8.39
2018-09-25T23:44:49.560Z,8.36
2018-09-25T23:50:04.355Z,8.32
2018-09-25T23:55:12.052Z,8.22
